»·PEaware :: SKW250 KSFO-KLAS

SKW250 :: KSFO-KLAS

FLIGHT INFORMATION

Flight Status: Arrived
Operator:
SkyWest Airlines
More flights by this operator :: More flights under this callsign
Pilot: Andrew J. (13363)
Aircraft: CANADAIR CL-600 CRJ-200
(CRJ2)
More flights by this aircraft type
Origin: KSFO San Francisco Intl
United States
Destination: KLAS McCarran Intl
United States
More flights between these airports :: More routes between these airports
Route: SAHEY3 NTELL Q162 ESSAA BTY SUNST3
File this flight plan on PilotEdge
Remarks:
Altitude:
(Current/Filed)
33,000ft
Speed:
(Current/Filed)
460kts
Departed: 08-Jan-17 08:26 PM
Arrived: 08-Jan-17 09:29 PM
Distance/Time
Traveled:
359nm/1:03
Distance/Time
To Go:
Arrived

Flight Plot

Page will automatically refresh every two minutes.


Map Options




Map Legend


Flown Route
Filed Route
Departure Airport
Arrival Airport
Navaid (VOR, NDB)
Fix

Horizontal Profiles

Position Reports

Time Latitude Longitude Heading Altitude Ground
Speed
08-Jan-17 19:58 37.621659 -122.388821 237 17ft 0kts
08-Jan-17 19:59 37.621659 -122.388821 237 17ft 0kts
08-Jan-17 20:00 37.621659 -122.388821 237 17ft 0kts
08-Jan-17 20:01 37.621659 -122.388821 237 17ft 0kts
08-Jan-17 20:02 37.621659 -122.388821 237 17ft 0kts
08-Jan-17 20:03 37.621659 -122.388821 237 17ft 0kts
08-Jan-17 20:04 37.621659 -122.388821 237 17ft 0kts
08-Jan-17 20:05 37.621659 -122.388821 237 17ft 0kts
08-Jan-17 20:06 37.621659 -122.388821 237 17ft 0kts
08-Jan-17 20:07 37.621659 -122.388821 237 17ft 0kts
08-Jan-17 20:08 37.621659 -122.388821 237 17ft 0kts
08-Jan-17 20:09 37.621659 -122.388821 237 17ft 0kts
08-Jan-17 20:10 37.621659 -122.388821 237 17ft 0kts
08-Jan-17 20:11 37.621659 -122.388821 237 17ft 0kts
08-Jan-17 20:12 37.621659 -122.388821 237 17ft 0kts
08-Jan-17 20:13 37.621722 -122.388442 337 17ft 1kts
08-Jan-17 20:14 37.621554 -122.388475 28 17ft 0kts
08-Jan-17 20:15 37.621554 -122.388475 28 17ft 0kts
08-Jan-17 20:16 37.621554 -122.388475 28 17ft 0kts
08-Jan-17 20:17 37.621554 -122.388475 28 17ft 0kts
08-Jan-17 20:18 37.621554 -122.388475 28 17ft 0kts
08-Jan-17 20:19 37.621554 -122.388475 28 17ft 0kts
08-Jan-17 20:20 37.622024 -122.387630 118 17ft 6kts
08-Jan-17 20:21 37.620872 -122.384988 109 17ft 10kts
08-Jan-17 20:22 37.619123 -122.380644 114 17ft 17kts
08-Jan-17 20:23 37.621100 -122.377203 47 17ft 19kts
08-Jan-17 20:24 37.626067 -122.372804 28 17ft 20kts
08-Jan-17 20:25 37.626265 -122.370751 207 17ft 3kts
08-Jan-17 20:26 37.615330 -122.377967 207 18ft 139kts
08-Jan-17 20:27 37.580814 -122.359004 95 1107ft 264kts
08-Jan-17 20:28 37.569786 -122.253363 113 4646ft 273kts
08-Jan-17 20:29 37.544738 -122.180920 122 7125ft 278kts
08-Jan-17 20:30 37.514307 -122.089171 121 9628ft 296kts
08-Jan-17 20:31 37.483194 -121.990292 122 11715ft 316kts
08-Jan-17 20:32 37.450206 -121.885810 123 13735ft 329kts
08-Jan-17 20:33 37.414925 -121.775618 123 14746ft 368kts
08-Jan-17 20:34 37.420911 -121.642171 72 15773ft 435kts
08-Jan-17 20:35 37.431788 -121.494837 98 17160ft 426kts
08-Jan-17 20:36 37.430854 -121.348759 99 18385ft 436kts
08-Jan-17 20:37 37.430195 -121.238649 99 19212ft 442kts
08-Jan-17 20:38 37.428626 -121.083458 100 20305ft 448kts
08-Jan-17 20:39 37.426822 -120.926598 100 21324ft 453kts
08-Jan-17 20:40 37.424798 -120.767837 99 22158ft 460kts
08-Jan-17 20:41 37.422479 -120.606116 100 22900ft 468kts
08-Jan-17 20:42 37.419929 -120.441980 99 23634ft 475kts
08-Jan-17 20:43 37.417459 -120.280949 100 24281ft 480kts
08-Jan-17 20:44 37.414460 -120.112408 100 24834ft 486kts
08-Jan-17 20:45 37.411120 -119.942613 100 25360ft 491kts
08-Jan-17 20:46 37.407446 -119.770551 100 25833ft 497kts
08-Jan-17 20:47 37.403585 -119.598156 100 26559ft 495kts
08-Jan-17 20:48 37.399420 -119.426876 100 27047ft 499kts
08-Jan-17 20:49 37.395376 -119.256914 101 27493ft 503kts
08-Jan-17 20:50 37.390751 -119.082776 101 27885ft 506kts
08-Jan-17 20:51 37.385673 -118.907144 99 28287ft 507kts
08-Jan-17 20:52 37.381789 -118.774949 100 28821ft 505kts
08-Jan-17 20:53 37.376355 -118.599002 100 29216ft 508kts
08-Jan-17 20:54 37.370657 -118.423919 100 29796ft 507kts
08-Jan-17 20:55 37.365111 -118.252093 101 30126ft 511kts
08-Jan-17 20:56 37.358874 -118.075139 101 30419ft 513kts
08-Jan-17 20:57 37.352601 -117.905347 100 30682ft 516kts
08-Jan-17 20:58 37.336339 -117.729902 105 31094ft 510kts
08-Jan-17 20:59 37.320551 -117.554762 104 31569ft 508kts
08-Jan-17 21:00 37.304420 -117.378349 105 31851ft 511kts
08-Jan-17 21:01 37.252893 -117.236249 140 32632ft 443kts
08-Jan-17 21:02 37.179378 -117.114738 141 33102ft 437kts
08-Jan-17 21:03 37.105113 -116.993308 141 33115ft 445kts
08-Jan-17 21:04 37.031940 -116.866364 137 33121ft 459kts
08-Jan-17 21:05 36.959815 -116.733392 137 33121ft 466kts
08-Jan-17 21:06 36.887461 -116.600541 137 33127ft 473kts
08-Jan-17 21:07 36.813864 -116.465926 136 33133ft 478kts
08-Jan-17 21:08 36.740860 -116.332768 137 33120ft 467kts
08-Jan-17 21:09 36.648268 -116.269476 182 32705ft 378kts
08-Jan-17 21:10 36.543865 -116.242649 180 30874ft 393kts
08-Jan-17 21:11 36.438060 -116.204113 171 28967ft 409kts
08-Jan-17 21:12 36.347841 -116.105524 144 27104ft 454kts
08-Jan-17 21:13 36.264453 -115.989322 142 25203ft 456kts
08-Jan-17 21:14 36.189294 -115.863186 122 22970ft 478kts
08-Jan-17 21:15 36.142425 -115.719129 121 19890ft 432kts
08-Jan-17 21:16 36.100095 -115.588258 121 16755ft 394kts
08-Jan-17 21:17 36.064038 -115.476381 123 16095ft 299kts
08-Jan-17 21:18 36.033601 -115.383370 122 13949ft 288kts
08-Jan-17 21:19 36.024484 -115.282772 104 11825ft 292kts
08-Jan-17 21:20 36.017806 -115.190392 102 9854ft 283kts
08-Jan-17 21:21 36.011551 -115.098440 102 8257ft 255kts
08-Jan-17 21:22 36.006344 -115.015335 98 6593ft 233kts
08-Jan-17 21:23 36.002003 -114.945858 88 5845ft 209kts
08-Jan-17 21:24 36.041080 -114.919518 1 5660ft 176kts
08-Jan-17 21:25 36.064772 -114.958708 281 5228ft 179kts
08-Jan-17 21:26 36.070815 -115.019500 276 4840ft 187kts
08-Jan-17 21:27 36.073390 -115.080575 268 3024ft 161kts
08-Jan-17 21:28 36.073660 -115.133329 268 2125ft 155kts
08-Jan-17 21:29 36.073949 -115.153446 297 2116ft 0kts
08-Jan-17 21:30 36.075345 -115.156250 319 2116ft 17kts
08-Jan-17 21:31 36.077339 -115.158226 357 2116ft 1kts
08-Jan-17 21:32 36.078004 -115.156385 91 2116ft 13kts
08-Jan-17 21:33 36.077804 -115.148622 91 2116ft 31kts
08-Jan-17 21:34 36.078755 -115.141692 357 2116ft 6kts
08-Jan-17 21:35 36.080869 -115.141492 16 2116ft 15kts
08-Jan-17 21:36 36.082199 -115.140015 46 2116ft 0kts

Navigation Log

Ident Type
1. KSFO Airport
2. BTY Navaid
3. MYCAL Fix
4. FUZZY Fix
5. TRAGR Fix
6. IPUMY Fix
7. NIPZO Fix
8. SUNST Fix
9. KIMME Fix
10. CHIPZ Fix
11. POKRR Fix
12. PRINO Fix
13. KLAS Airport